createdAt,value
2022-10-30T00:00:29.000Z,13.93
2022-10-30T00:01:29.000Z,13.97
2022-10-30T00:02:29.000Z,13.96
2022-10-30T00:03:29.000Z,13.93
2022-10-30T00:04:29.000Z,13.96
2022-10-30T00:05:29.000Z,14.00
2022-10-30T00:06:29.000Z,13.89
2022-10-30T00:07:29.000Z,13.87
2022-10-30T00:08:29.000Z,13.89
2022-10-30T00:09:29.000Z,13.81
2022-10-30T00:10:29.000Z,13.77
2022-10-30T00:11:29.000Z,13.83
2022-10-30T00:12:29.000Z,13.72
2022-10-30T00:13:29.000Z,13.77
2022-10-30T00:14:29.000Z,13.77
2022-10-30T00:15:29.000Z,13.72
2022-10-30T00:16:29.000Z,13.68
2022-10-30T00:17:29.000Z,13.68
2022-10-30T00:18:29.000Z,13.67
2022-10-30T00:19:29.000Z,13.63
2022-10-30T00:20:29.000Z,13.60
2022-10-30T00:21:29.000Z,13.62
2022-10-30T00:22:29.000Z,13.65
2022-10-30T00:23:29.000Z,13.65
2022-10-30T00:24:29.000Z,13.60
2022-10-30T00:25:29.000Z,13.56
2022-10-30T00:26:29.000Z,13.50
2022-10-30T00:27:29.000Z,13.49
2022-10-30T00:28:29.000Z,13.47
2022-10-30T00:29:29.000Z,13.41
2022-10-30T00:30:29.000Z,13.38
2022-10-30T00:31:28.000Z,13.37
2022-10-30T00:32:28.000Z,13.38
2022-10-30T00:33:28.000Z,13.39
2022-10-30T00:34:28.000Z,13.31
2022-10-30T00:35:28.000Z,13.33
2022-10-30T00:36:28.000Z,13.35
2022-10-30T00:37:28.000Z,13.28
2022-10-30T00:38:28.000Z,13.30
2022-10-30T00:39:28.000Z,13.25
2022-10-30T00:40:28.000Z,13.35
2022-10-30T00:41:28.000Z,13.31
2022-10-30T00:42:28.000Z,13.22
2022-10-30T00:43:28.000Z,13.28
2022-10-30T00:44:28.000Z,13.20
2022-10-30T00:45:28.000Z,13.19
2022-10-30T00:46:28.000Z,13.23
2022-10-30T00:47:28.000Z,13.16
2022-10-30T00:48:28.000Z,13.16
2022-10-30T00:49:28.000Z,13.09
2022-10-30T00:50:28.000Z,13.12
2022-10-30T00:51:28.000Z,13.04
2022-10-30T00:52:28.000Z,13.00
2022-10-30T00:53:28.000Z,12.98
2022-10-30T00:54:28.000Z,12.98
2022-10-30T00:55:28.000Z,12.97
2022-10-30T00:56:28.000Z,12.93
2022-10-30T00:57:28.000Z,12.90
2022-10-30T00:58:28.000Z,12.86
2022-10-30T00:59:28.000Z,12.83
2022-10-30T01:00:28.000Z,12.86
2022-10-30T01:01:28.000Z,12.83
2022-10-30T01:02:28.000Z,12.83
2022-10-30T01:03:28.000Z,12.79
2022-10-30T01:04:28.000Z,12.80
2022-10-30T01:05:28.000Z,12.79
2022-10-30T01:06:28.000Z,12.85
2022-10-30T01:07:28.000Z,12.82
2022-10-30T01:08:28.000Z,12.83
2022-10-30T01:09:28.000Z,12.79
2022-10-30T01:10:28.000Z,12.83
2022-10-30T01:11:28.000Z,12.83
2022-10-30T01:12:28.000Z,12.85
2022-10-30T01:13:28.000Z,12.82
2022-10-30T01:14:28.000Z,12.83
2022-10-30T01:15:28.000Z,12.83
2022-10-30T01:16:28.000Z,12.80
2022-10-30T01:17:28.000Z,12.80
2022-10-30T01:18:28.000Z,12.80
2022-10-30T01:19:28.000Z,12.85
2022-10-30T01:20:28.000Z,12.86
2022-10-30T01:21:28.000Z,12.82
2022-10-30T01:22:28.000Z,12.85
2022-10-30T01:23:28.000Z,12.90
2022-10-30T01:24:28.000Z,12.87
2022-10-30T01:25:28.000Z,12.87
2022-10-30T01:26:28.000Z,12.87
2022-10-30T01:27:28.000Z,12.87
2022-10-30T01:28:28.000Z,12.91
2022-10-30T01:29:28.000Z,12.90
2022-10-30T01:30:28.000Z,12.93
2022-10-30T01:31:28.000Z,12.91
2022-10-30T01:32:28.000Z,12.90
2022-10-30T01:33:28.000Z,12.90
2022-10-30T01:34:28.000Z,12.90
2022-10-30T01:35:28.000Z,12.86
2022-10-30T01:36:28.000Z,12.85
2022-10-30T01:37:28.000Z,12.83
2022-10-30T01:38:28.000Z,12.82
2022-10-30T01:39:28.000Z,12.83
2022-10-30T01:40:28.000Z,12.80
2022-10-30T01:41:28.000Z,12.80
2022-10-30T01:42:28.000Z,12.78
2022-10-30T01:43:28.000Z,12.79
2022-10-30T01:44:28.000Z,12.76
2022-10-30T01:45:28.000Z,12.79
2022-10-30T01:46:28.000Z,12.83
2022-10-30T01:47:28.000Z,12.79
2022-10-30T01:48:28.000Z,12.79
2022-10-30T01:49:28.000Z,12.83
2022-10-30T01:50:28.000Z,12.80
2022-10-30T01:51:28.000Z,12.80
2022-10-30T01:52:28.000Z,12.80
2022-10-30T01:53:28.000Z,12.78
2022-10-30T01:54:28.000Z,12.80
2022-10-30T01:55:28.000Z,12.73
2022-10-30T01:56:28.000Z,12.75
2022-10-30T01:57:28.000Z,12.73
2022-10-30T01:58:28.000Z,12.75
2022-10-30T01:59:28.000Z,12.72
2022-10-30T02:00:28.000Z,12.72
2022-10-30T02:01:28.000Z,12.70
2022-10-30T02:02:28.000Z,12.70
2022-10-30T02:03:28.000Z,12.72
2022-10-30T02:04:27.000Z,12.79
2022-10-30T02:05:27.000Z,12.78
2022-10-30T02:06:27.000Z,12.75
2022-10-30T02:07:27.000Z,12.79
2022-10-30T02:08:27.000Z,12.75
2022-10-30T02:09:27.000Z,12.76
2022-10-30T02:10:27.000Z,12.73
2022-10-30T02:11:27.000Z,12.79
2022-10-30T02:12:27.000Z,12.79
2022-10-30T02:13:27.000Z,12.78
2022-10-30T02:14:27.000Z,12.79
2022-10-30T02:15:27.000Z,12.72
2022-10-30T02:16:27.000Z,12.76
2022-10-30T02:17:27.000Z,12.73
2022-10-30T02:18:27.000Z,12.78
2022-10-30T02:19:27.000Z,12.76
2022-10-30T02:20:27.000Z,12.73
2022-10-30T02:21:27.000Z,12.75
2022-10-30T02:22:27.000Z,12.70
2022-10-30T02:23:27.000Z,12.73
2022-10-30T02:24:27.000Z,12.70
2022-10-30T02:25:27.000Z,12.73
2022-10-30T02:26:27.000Z,12.72
2022-10-30T02:27:27.000Z,12.78
2022-10-30T02:28:27.000Z,12.73
2022-10-30T02:29:27.000Z,12.76
2022-10-30T02:30:27.000Z,12.76
2022-10-30T02:31:27.000Z,12.73
2022-10-30T02:32:27.000Z,12.72
2022-10-30T02:33:27.000Z,12.75
2022-10-30T02:34:27.000Z,12.72
2022-10-30T02:35:27.000Z,12.70
2022-10-30T02:36:27.000Z,12.72
2022-10-30T02:37:27.000Z,12.70
2022-10-30T02:38:27.000Z,12.64
2022-10-30T02:39:27.000Z,12.64
2022-10-30T02:40:27.000Z,12.65
2022-10-30T02:41:27.000Z,12.61
2022-10-30T02:42:27.000Z,12.60
2022-10-30T02:43:27.000Z,12.62
2022-10-30T02:44:27.000Z,12.58
2022-10-30T02:45:27.000Z,12.54
2022-10-30T02:46:27.000Z,12.54
2022-10-30T02:47:27.000Z,12.49
2022-10-30T02:48:27.000Z,12.54
2022-10-30T02:49:27.000Z,12.53
2022-10-30T02:50:27.000Z,12.50
2022-10-30T02:51:27.000Z,12.47
2022-10-30T02:52:27.000Z,12.49
2022-10-30T02:53:27.000Z,12.50
2022-10-30T02:54:27.000Z,12.47
2022-10-30T02:55:27.000Z,12.50
2022-10-30T02:56:27.000Z,12.46
2022-10-30T02:57:27.000Z,12.46
2022-10-30T02:58:27.000Z,12.45
2022-10-30T02:59:27.000Z,12.45
2022-10-30T03:00:27.000Z,12.46
2022-10-30T03:01:27.000Z,12.47
2022-10-30T03:02:27.000Z,12.43
2022-10-30T03:03:27.000Z,12.47
2022-10-30T03:04:27.000Z,12.46
2022-10-30T03:05:27.000Z,12.47
2022-10-30T03:06:27.000Z,12.43
2022-10-30T03:07:27.000Z,12.45
2022-10-30T03:08:27.000Z,12.42
2022-10-30T03:09:27.000Z,12.40
2022-10-30T03:10:27.000Z,12.42
2022-10-30T03:11:27.000Z,12.42
2022-10-30T03:12:27.000Z,12.43
2022-10-30T03:13:27.000Z,12.45
2022-10-30T03:14:27.000Z,12.39
2022-10-30T03:15:27.000Z,12.43
2022-10-30T03:16:27.000Z,12.43
2022-10-30T03:17:27.000Z,12.42
2022-10-30T03:18:27.000Z,12.46
2022-10-30T03:19:27.000Z,12.37
2022-10-30T03:20:27.000Z,12.46
2022-10-30T03:21:27.000Z,12.39
2022-10-30T03:22:27.000Z,12.37
2022-10-30T03:23:27.000Z,12.40
2022-10-30T03:24:27.000Z,12.35
2022-10-30T03:25:27.000Z,12.39
2022-10-30T03:26:27.000Z,12.40
2022-10-30T03:27:27.000Z,12.36
2022-10-30T03:28:27.000Z,12.35
2022-10-30T03:29:27.000Z,12.37
2022-10-30T03:30:27.000Z,12.31
2022-10-30T03:31:27.000Z,12.36
2022-10-30T03:32:27.000Z,12.31
2022-10-30T03:33:27.000Z,12.35
2022-10-30T03:34:27.000Z,12.32
2022-10-30T03:35:27.000Z,12.32
2022-10-30T03:36:26.000Z,12.29
2022-10-30T03:37:26.000Z,12.28
2022-10-30T03:38:26.000Z,12.29
2022-10-30T03:39:26.000Z,12.31
2022-10-30T03:40:26.000Z,12.28
2022-10-30T03:41:26.000Z,12.31
2022-10-30T03:48:44.000Z,12.20
2022-10-30T03:48:44.000Z,12.17
2022-10-30T03:49:44.000Z,12.17
2022-10-30T03:50:44.000Z,12.15
2022-10-30T03:51:44.000Z,12.13
2022-10-30T03:52:44.000Z,12.10
2022-10-30T03:53:44.000Z,12.13
2022-10-30T03:54:44.000Z,12.13
2022-10-30T03:55:44.000Z,12.12
2022-10-30T03:56:44.000Z,12.15
2022-10-30T03:57:44.000Z,12.17
2022-10-30T03:58:44.000Z,12.13
2022-10-30T03:59:44.000Z,12.13
2022-10-30T04:00:43.000Z,12.15
2022-10-30T04:01:43.000Z,12.18
2022-10-30T04:02:43.000Z,12.21
2022-10-30T04:03:43.000Z,12.18
2022-10-30T04:04:43.000Z,12.20
2022-10-30T04:05:43.000Z,12.21
2022-10-30T04:06:43.000Z,12.21
2022-10-30T04:07:43.000Z,12.25
2022-10-30T04:08:43.000Z,12.20
2022-10-30T04:09:43.000Z,12.22
2022-10-30T04:10:43.000Z,12.24
2022-10-30T04:11:43.000Z,12.22
2022-10-30T04:12:43.000Z,12.22
2022-10-30T04:13:43.000Z,12.24
2022-10-30T04:14:43.000Z,12.21
2022-10-30T04:15:43.000Z,12.20
2022-10-30T04:16:43.000Z,12.24
2022-10-30T04:17:43.000Z,12.27
2022-10-30T04:18:43.000Z,12.21
2022-10-30T04:19:43.000Z,12.21
2022-10-30T04:20:43.000Z,12.21
2022-10-30T04:21:43.000Z,12.21
2022-10-30T04:22:43.000Z,12.15
2022-10-30T04:23:43.000Z,12.18
2022-10-30T04:24:43.000Z,12.15
2022-10-30T04:25:43.000Z,12.17
2022-10-30T04:26:43.000Z,12.17
2022-10-30T04:27:43.000Z,12.18
2022-10-30T04:28:43.000Z,12.17
2022-10-30T04:29:43.000Z,12.13
2022-10-30T04:30:43.000Z,12.17
2022-10-30T04:31:43.000Z,12.17
2022-10-30T04:32:43.000Z,12.18
2022-10-30T04:33:43.000Z,12.15
2022-10-30T04:34:43.000Z,12.21
2022-10-30T04:35:43.000Z,12.20
2022-10-30T04:36:43.000Z,12.24
2022-10-30T04:37:43.000Z,12.24
2022-10-30T04:38:43.000Z,12.25
2022-10-30T04:39:43.000Z,12.22
2022-10-30T04:40:43.000Z,12.24
2022-10-30T04:41:43.000Z,12.25
2022-10-30T04:42:43.000Z,12.25
2022-10-30T04:43:43.000Z,12.24
2022-10-30T04:44:43.000Z,12.28
2022-10-30T04:45:43.000Z,12.29
2022-10-30T04:46:43.000Z,12.29
2022-10-30T04:47:43.000Z,12.32
2022-10-30T04:48:43.000Z,12.36
2022-10-30T04:49:43.000Z,12.36
2022-10-30T04:50:43.000Z,12.40
2022-10-30T04:51:43.000Z,12.40
2022-10-30T04:52:43.000Z,12.42
2022-10-30T04:53:43.000Z,12.40
2022-10-30T04:54:43.000Z,12.37
2022-10-30T04:55:43.000Z,12.45
2022-10-30T04:56:43.000Z,12.42
2022-10-30T04:57:43.000Z,12.46
2022-10-30T04:58:43.000Z,12.47
2022-10-30T04:59:43.000Z,12.43
2022-10-30T05:00:43.000Z,12.53
2022-10-30T05:01:43.000Z,12.49
2022-10-30T05:02:43.000Z,12.49
2022-10-30T05:03:43.000Z,12.46
2022-10-30T05:04:43.000Z,12.50
2022-10-30T05:05:43.000Z,12.49
2022-10-30T05:06:43.000Z,12.53
2022-10-30T05:07:43.000Z,12.53
2022-10-30T05:08:43.000Z,12.53
2022-10-30T05:09:43.000Z,12.57
2022-10-30T05:10:43.000Z,12.55
2022-10-30T05:11:43.000Z,12.58
2022-10-30T05:12:43.000Z,12.55
2022-10-30T05:13:43.000Z,12.61
2022-10-30T05:14:43.000Z,12.60
2022-10-30T05:15:43.000Z,12.61
2022-10-30T05:16:43.000Z,12.61
2022-10-30T05:17:43.000Z,12.58
2022-10-30T05:18:43.000Z,12.58
2022-10-30T05:19:43.000Z,12.60
2022-10-30T05:20:43.000Z,12.57
2022-10-30T05:21:43.000Z,12.60
2022-10-30T05:22:43.000Z,12.60
2022-10-30T05:23:43.000Z,12.62
2022-10-30T05:24:43.000Z,12.60
2022-10-30T05:25:43.000Z,12.62
2022-10-30T05:26:43.000Z,12.64
2022-10-30T05:27:43.000Z,12.64
2022-10-30T05:28:43.000Z,12.65
2022-10-30T05:29:43.000Z,12.62
2022-10-30T05:30:43.000Z,12.64
2022-10-30T05:31:43.000Z,12.61
2022-10-30T05:32:43.000Z,12.60
2022-10-30T05:33:43.000Z,12.60
2022-10-30T05:34:43.000Z,12.61
2022-10-30T05:35:42.000Z,12.64
2022-10-30T05:36:42.000Z,12.62
2022-10-30T05:37:42.000Z,12.60
2022-10-30T05:38:42.000Z,12.62
2022-10-30T05:39:42.000Z,12.57
2022-10-30T05:40:42.000Z,12.64
2022-10-30T05:41:42.000Z,12.58
2022-10-30T05:42:42.000Z,12.55
2022-10-30T05:43:42.000Z,12.55
2022-10-30T05:44:42.000Z,12.60
2022-10-30T05:45:42.000Z,12.61
2022-10-30T05:46:42.000Z,12.55
2022-10-30T05:47:42.000Z,12.58
2022-10-30T05:48:42.000Z,12.55
2022-10-30T05:49:42.000Z,12.60
2022-10-30T05:50:42.000Z,12.53
2022-10-30T05:51:42.000Z,12.58
2022-10-30T05:52:42.000Z,12.57
2022-10-30T05:53:42.000Z,12.57
2022-10-30T05:54:42.000Z,12.54
2022-10-30T05:55:42.000Z,12.60
2022-10-30T05:56:42.000Z,12.57
2022-10-30T05:57:42.000Z,12.53
2022-10-30T05:58:42.000Z,12.54
2022-10-30T05:59:42.000Z,12.55
2022-10-30T06:00:42.000Z,12.50
2022-10-30T06:01:42.000Z,12.57
2022-10-30T06:02:42.000Z,12.53
2022-10-30T06:03:42.000Z,12.61
2022-10-30T06:04:42.000Z,12.54
2022-10-30T06:05:42.000Z,12.54
2022-10-30T06:06:42.000Z,12.57
2022-10-30T06:07:42.000Z,12.57
2022-10-30T06:08:42.000Z,12.58
2022-10-30T06:09:42.000Z,12.57
2022-10-30T06:10:42.000Z,12.57
2022-10-30T06:11:42.000Z,12.57
2022-10-30T06:12:42.000Z,12.55
2022-10-30T06:13:42.000Z,12.58
2022-10-30T06:14:42.000Z,12.61
2022-10-30T06:15:42.000Z,12.64
2022-10-30T06:16:42.000Z,12.58
2022-10-30T06:17:42.000Z,12.68
2022-10-30T06:18:42.000Z,12.65
2022-10-30T06:19:42.000Z,12.64
2022-10-30T06:20:42.000Z,12.70
2022-10-30T06:21:42.000Z,12.67
2022-10-30T06:22:42.000Z,12.72
2022-10-30T06:23:42.000Z,12.73
2022-10-30T06:24:42.000Z,12.72
2022-10-30T06:25:42.000Z,12.76
2022-10-30T06:26:42.000Z,12.75
2022-10-30T06:27:42.000Z,12.78
2022-10-30T06:28:42.000Z,12.85
2022-10-30T06:29:42.000Z,12.87
2022-10-30T06:30:42.000Z,12.86
2022-10-30T06:31:42.000Z,12.91
2022-10-30T06:32:42.000Z,12.97
2022-10-30T06:33:42.000Z,12.93
2022-10-30T06:34:42.000Z,13.01
2022-10-30T06:35:42.000Z,13.08
2022-10-30T06:36:42.000Z,13.05
2022-10-30T06:37:42.000Z,13.08
2022-10-30T06:38:42.000Z,13.09
2022-10-30T06:39:42.000Z,13.16
2022-10-30T06:40:42.000Z,13.19
2022-10-30T06:41:42.000Z,13.25
2022-10-30T06:42:42.000Z,13.31
2022-10-30T06:43:42.000Z,13.31
2022-10-30T06:44:42.000Z,13.38
2022-10-30T06:45:42.000Z,13.41
2022-10-30T06:46:42.000Z,13.46
2022-10-30T06:47:42.000Z,13.47
2022-10-30T06:48:42.000Z,13.56
2022-10-30T06:49:42.000Z,13.54
2022-10-30T06:50:42.000Z,13.59
2022-10-30T06:51:42.000Z,13.67
2022-10-30T06:52:42.000Z,13.71
2022-10-30T06:53:42.000Z,13.74
2022-10-30T06:54:42.000Z,13.85
2022-10-30T06:55:42.000Z,13.86
2022-10-30T06:56:42.000Z,13.86
2022-10-30T06:57:42.000Z,13.96
2022-10-30T06:58:42.000Z,13.99
2022-10-30T06:59:42.000Z,14.03
2022-10-30T07:00:42.000Z,14.08
2022-10-30T07:01:42.000Z,14.14
2022-10-30T07:02:42.000Z,14.14
2022-10-30T07:03:42.000Z,14.20
2022-10-30T07:04:42.000Z,14.22
2022-10-30T07:05:42.000Z,14.32
2022-10-30T07:06:42.000Z,14.33
2022-10-30T07:07:42.000Z,14.37
2022-10-30T07:08:42.000Z,14.37
2022-10-30T07:09:42.000Z,14.45
2022-10-30T07:10:41.000Z,14.43
2022-10-30T07:11:41.000Z,14.48
2022-10-30T07:12:41.000Z,14.50
2022-10-30T07:13:41.000Z,14.51
2022-10-30T07:14:41.000Z,14.65
2022-10-30T07:15:41.000Z,14.66
2022-10-30T07:16:41.000Z,14.69
2022-10-30T07:17:41.000Z,14.82
2022-10-30T07:18:41.000Z,14.86
2022-10-30T07:19:41.000Z,14.94
2022-10-30T07:20:41.000Z,15.06
2022-10-30T07:21:41.000Z,15.19
2022-10-30T07:22:41.000Z,15.29
2022-10-30T07:23:41.000Z,15.43
2022-10-30T07:24:41.000Z,15.55
2022-10-30T07:25:41.000Z,15.70
2022-10-30T07:26:41.000Z,15.86
2022-10-30T07:27:41.000Z,16.01
2022-10-30T07:28:41.000Z,16.15
2022-10-30T07:29:41.000Z,16.35
2022-10-30T07:30:41.000Z,16.46
2022-10-30T07:31:41.000Z,16.61
2022-10-30T07:32:41.000Z,16.76
2022-10-30T07:33:41.000Z,16.91
2022-10-30T07:34:41.000Z,17.08
2022-10-30T07:35:41.000Z,17.23
2022-10-30T07:36:41.000Z,17.34
2022-10-30T07:37:41.000Z,17.48
2022-10-30T07:38:41.000Z,17.57
2022-10-30T07:39:41.000Z,17.72
2022-10-30T07:40:41.000Z,17.87
2022-10-30T07:41:41.000Z,18.01
2022-10-30T07:42:41.000Z,18.10
2022-10-30T07:43:41.000Z,18.16
2022-10-30T07:44:41.000Z,18.23
2022-10-30T07:45:41.000Z,18.26
2022-10-30T07:46:41.000Z,18.29
2022-10-30T07:47:41.000Z,18.37
2022-10-30T07:48:41.000Z,18.40
2022-10-30T07:49:41.000Z,18.41
2022-10-30T07:50:41.000Z,18.43
2022-10-30T07:51:41.000Z,18.52
2022-10-30T07:52:41.000Z,18.56
2022-10-30T07:53:41.000Z,18.60
2022-10-30T07:54:41.000Z,18.71
2022-10-30T07:55:41.000Z,18.86
2022-10-30T07:56:41.000Z,18.92
2022-10-30T07:57:41.000Z,19.09
2022-10-30T07:58:41.000Z,19.18
2022-10-30T07:59:41.000Z,19.33
2022-10-30T08:00:41.000Z,19.33
2022-10-30T08:01:41.000Z,19.40
2022-10-30T08:02:41.000Z,19.51
2022-10-30T08:03:41.000Z,19.51
2022-10-30T08:04:41.000Z,19.52
2022-10-30T08:05:41.000Z,19.52
2022-10-30T08:06:41.000Z,19.51
2022-10-30T08:07:41.000Z,19.47
2022-10-30T08:08:41.000Z,19.47
2022-10-30T08:09:41.000Z,19.40
2022-10-30T08:10:41.000Z,19.33
2022-10-30T08:11:41.000Z,19.31
2022-10-30T08:12:41.000Z,19.29
2022-10-30T08:13:41.000Z,19.19
2022-10-30T08:14:41.000Z,19.18
2022-10-30T08:15:41.000Z,19.07
2022-10-30T08:16:41.000Z,18.98
2022-10-30T08:17:41.000Z,18.88
2022-10-30T08:18:41.000Z,18.80
2022-10-30T08:19:41.000Z,18.73
2022-10-30T08:20:41.000Z,18.75
2022-10-30T08:21:41.000Z,18.71
2022-10-30T08:22:41.000Z,18.68
2022-10-30T08:23:41.000Z,18.71
2022-10-30T08:24:41.000Z,18.68
2022-10-30T08:25:41.000Z,18.70
2022-10-30T08:26:41.000Z,18.74
2022-10-30T08:27:41.000Z,18.93
2022-10-30T08:28:41.000Z,19.09
2022-10-30T08:29:41.000Z,19.34
2022-10-30T08:30:41.000Z,19.52
2022-10-30T08:31:41.000Z,19.73
2022-10-30T08:32:41.000Z,19.89
2022-10-30T08:33:41.000Z,20.00
2022-10-30T08:34:41.000Z,20.10
2022-10-30T08:35:41.000Z,20.19
2022-10-30T08:36:41.000Z,20.26
2022-10-30T08:37:41.000Z,20.32
2022-10-30T08:38:41.000Z,20.39
2022-10-30T08:39:41.000Z,20.44
2022-10-30T08:40:41.000Z,20.51
2022-10-30T08:41:41.000Z,20.47
2022-10-30T08:42:41.000Z,20.48
2022-10-30T08:43:40.000Z,20.47
2022-10-30T08:44:40.000Z,20.47
2022-10-30T08:45:40.000Z,20.50
2022-10-30T08:46:40.000Z,20.66
2022-10-30T08:47:40.000Z,20.72
2022-10-30T08:48:40.000Z,20.87
2022-10-30T08:49:40.000Z,20.99
2022-10-30T08:50:40.000Z,21.18
2022-10-30T08:51:40.000Z,21.39
2022-10-30T08:52:40.000Z,21.61
2022-10-30T08:53:40.000Z,21.82
2022-10-30T08:54:40.000Z,22.06
2022-10-30T08:55:40.000Z,22.25
2022-10-30T08:56:40.000Z,22.48
2022-10-30T08:57:40.000Z,22.65
2022-10-30T08:58:40.000Z,22.84
2022-10-30T08:59:40.000Z,23.03
2022-10-30T09:00:40.000Z,23.25
2022-10-30T09:01:40.000Z,23.43
2022-10-30T09:02:40.000Z,23.55
2022-10-30T09:03:40.000Z,23.66
2022-10-30T09:04:40.000Z,23.77
2022-10-30T09:05:40.000Z,23.95
2022-10-30T09:06:40.000Z,24.01
2022-10-30T09:07:40.000Z,24.14
2022-10-30T09:08:40.000Z,24.26
2022-10-30T09:09:40.000Z,24.29
2022-10-30T09:10:40.000Z,24.33
2022-10-30T09:11:40.000Z,24.38
2022-10-30T09:12:40.000Z,24.36
2022-10-30T09:13:40.000Z,24.35
2022-10-30T09:14:40.000Z,24.26
2022-10-30T09:15:40.000Z,24.14
2022-10-30T09:16:40.000Z,23.92
2022-10-30T09:17:40.000Z,23.77
2022-10-30T09:18:40.000Z,23.59
2022-10-30T09:19:40.000Z,23.46
2022-10-30T09:20:40.000Z,23.34
2022-10-30T09:21:40.000Z,23.36
2022-10-30T09:22:40.000Z,23.34
2022-10-30T09:23:40.000Z,23.40
2022-10-30T09:24:40.000Z,23.48
2022-10-30T09:25:40.000Z,23.55
2022-10-30T09:26:40.000Z,23.66
2022-10-30T09:27:40.000Z,23.78
2022-10-30T09:27:40.000Z,23.78
2022-10-30T09:28:40.000Z,23.86
2022-10-30T09:28:40.000Z,23.86
2022-10-30T09:29:40.000Z,23.99
2022-10-30T09:29:40.000Z,23.99
2022-10-30T09:30:40.000Z,24.10
2022-10-30T09:30:40.000Z,24.10
2022-10-30T09:31:40.000Z,24.13
2022-10-30T09:31:40.000Z,24.13
2022-10-30T09:32:40.000Z,24.24
2022-10-30T09:33:40.000Z,24.32
2022-10-30T09:34:40.000Z,24.40
2022-10-30T09:35:40.000Z,24.58
2022-10-30T09:36:40.000Z,24.70
2022-10-30T09:37:40.000Z,24.85
2022-10-30T09:38:40.000Z,24.98
2022-10-30T09:39:40.000Z,25.08
2022-10-30T09:40:40.000Z,25.23
2022-10-30T09:41:40.000Z,25.31
2022-10-30T09:42:40.000Z,25.43
2022-10-30T09:43:40.000Z,25.58
2022-10-30T09:44:40.000Z,25.65
2022-10-30T09:45:40.000Z,25.81
2022-10-30T09:46:40.000Z,25.88
2022-10-30T09:47:40.000Z,26.05
2022-10-30T09:48:40.000Z,26.13
2022-10-30T09:49:40.000Z,26.19
2022-10-30T09:50:40.000Z,26.28
2022-10-30T09:51:40.000Z,26.33
2022-10-30T09:52:40.000Z,26.22
2022-10-30T09:53:40.000Z,26.43
2022-10-30T09:54:40.000Z,26.56
2022-10-30T09:55:40.000Z,26.66
2022-10-30T09:56:40.000Z,26.84
2022-10-30T09:57:40.000Z,26.93
2022-10-30T09:58:40.000Z,27.07
2022-10-30T09:59:40.000Z,27.17
2022-10-30T10:00:40.000Z,27.25
2022-10-30T10:01:40.000Z,27.22
2022-10-30T10:02:40.000Z,27.29
2022-10-30T10:03:40.000Z,27.36
2022-10-30T10:04:40.000Z,27.33
2022-10-30T10:05:40.000Z,27.27
2022-10-30T10:06:40.000Z,27.26
2022-10-30T10:07:40.000Z,27.20
2022-10-30T10:08:40.000Z,27.25
2022-10-30T10:09:40.000Z,27.15
2022-10-30T10:10:40.000Z,27.15
2022-10-30T10:11:40.000Z,27.08
2022-10-30T10:12:40.000Z,26.99
2022-10-30T10:13:40.000Z,26.92
2022-10-30T10:14:40.000Z,26.93
2022-10-30T10:15:40.000Z,26.89
2022-10-30T10:16:40.000Z,26.90
2022-10-30T10:17:40.000Z,26.93
2022-10-30T10:18:40.000Z,26.85
2022-10-30T10:19:39.000Z,26.89
2022-10-30T10:20:39.000Z,26.89
2022-10-30T10:21:39.000Z,26.93
2022-10-30T10:22:39.000Z,26.96
2022-10-30T10:23:39.000Z,27.03
2022-10-30T10:24:39.000Z,27.11
2022-10-30T10:25:39.000Z,27.29
2022-10-30T10:26:39.000Z,27.33
2022-10-30T10:27:39.000Z,27.45
2022-10-30T10:28:39.000Z,27.47
2022-10-30T10:29:39.000Z,27.49
2022-10-30T10:30:39.000Z,27.63
2022-10-30T10:31:39.000Z,27.77
2022-10-30T10:32:39.000Z,27.89
2022-10-30T10:33:39.000Z,27.86
2022-10-30T10:34:39.000Z,27.87
2022-10-30T10:35:39.000Z,27.95
2022-10-30T10:36:39.000Z,28.12
2022-10-30T10:37:39.000Z,28.26
2022-10-30T10:38:39.000Z,28.37
2022-10-30T10:39:39.000Z,28.32
2022-10-30T10:40:39.000Z,28.33
2022-10-30T10:41:39.000Z,28.30
2022-10-30T10:42:39.000Z,28.35
2022-10-30T10:43:39.000Z,28.49
2022-10-30T10:44:39.000Z,28.52
2022-10-30T10:45:39.000Z,28.63
2022-10-30T10:46:39.000Z,28.76
2022-10-30T10:47:39.000Z,28.85
2022-10-30T10:48:39.000Z,28.91
2022-10-30T10:49:39.000Z,28.89
2022-10-30T10:50:39.000Z,29.04
2022-10-30T10:51:39.000Z,28.89
2022-10-30T10:52:39.000Z,28.96
2022-10-30T10:53:39.000Z,29.04
2022-10-30T10:54:39.000Z,29.16
2022-10-30T10:55:39.000Z,29.23
2022-10-30T10:56:39.000Z,29.29
2022-10-30T10:57:39.000Z,29.32
2022-10-30T10:58:39.000Z,29.39
2022-10-30T10:59:39.000Z,29.47
2022-10-30T11:00:39.000Z,29.45
2022-10-30T11:01:39.000Z,29.50
2022-10-30T11:02:39.000Z,29.59
2022-10-30T11:03:39.000Z,29.68
2022-10-30T11:04:39.000Z,29.66
2022-10-30T11:05:39.000Z,29.72
2022-10-30T11:06:39.000Z,29.87
2022-10-30T11:07:39.000Z,29.90
2022-10-30T11:08:39.000Z,29.94
2022-10-30T11:09:39.000Z,29.93
2022-10-30T11:10:39.000Z,29.93
2022-10-30T11:11:39.000Z,30.00
2022-10-30T11:12:39.000Z,30.16
2022-10-30T11:13:39.000Z,30.32
2022-10-30T11:14:39.000Z,30.50
2022-10-30T11:15:39.000Z,30.46
2022-10-30T11:16:39.000Z,30.44
2022-10-30T11:17:39.000Z,30.43
2022-10-30T11:18:39.000Z,30.51
2022-10-30T11:19:39.000Z,30.51
2022-10-30T11:20:39.000Z,30.54
2022-10-30T11:21:39.000Z,30.61
2022-10-30T11:22:39.000Z,30.62
2022-10-30T11:23:39.000Z,30.62
2022-10-30T11:24:39.000Z,30.55
2022-10-30T11:25:39.000Z,30.59
2022-10-30T11:26:39.000Z,30.55
2022-10-30T11:27:39.000Z,30.50
2022-10-30T11:28:39.000Z,30.48
2022-10-30T11:29:39.000Z,30.50
2022-10-30T11:30:39.000Z,30.54
2022-10-30T11:31:39.000Z,30.55
2022-10-30T11:32:39.000Z,30.70
2022-10-30T11:33:39.000Z,30.68
2022-10-30T11:34:39.000Z,30.73
2022-10-30T11:35:39.000Z,30.78
2022-10-30T11:36:39.000Z,30.70
2022-10-30T11:37:39.000Z,30.70
2022-10-30T11:38:39.000Z,30.78
2022-10-30T11:39:39.000Z,30.90
2022-10-30T11:40:39.000Z,30.90
2022-10-30T11:41:39.000Z,31.00
2022-10-30T11:42:39.000Z,30.96
2022-10-30T11:43:39.000Z,30.90
2022-10-30T11:44:39.000Z,30.81
2022-10-30T11:45:39.000Z,30.77
2022-10-30T11:46:39.000Z,30.66
2022-10-30T11:47:39.000Z,30.84
2022-10-30T11:48:39.000Z,30.92
2022-10-30T11:49:39.000Z,31.03
2022-10-30T11:50:39.000Z,31.12
2022-10-30T11:51:39.000Z,31.24
2022-10-30T11:52:39.000Z,31.25
2022-10-30T11:53:39.000Z,31.17
2022-10-30T11:54:39.000Z,31.22
2022-10-30T11:55:39.000Z,31.24
2022-10-30T11:56:39.000Z,31.25
2022-10-30T11:57:39.000Z,31.31
2022-10-30T11:58:39.000Z,31.34
2022-10-30T11:59:39.000Z,31.51
2022-10-30T12:00:39.000Z,31.51
2022-10-30T12:01:38.000Z,31.27
2022-10-30T12:02:38.000Z,31.36
2022-10-30T12:03:38.000Z,31.43
2022-10-30T12:04:38.000Z,31.52
2022-10-30T12:05:38.000Z,31.52
2022-10-30T12:06:38.000Z,31.66
2022-10-30T12:07:38.000Z,31.73
2022-10-30T12:08:38.000Z,31.61
2022-10-30T12:09:38.000Z,31.51
2022-10-30T12:10:38.000Z,31.58
2022-10-30T12:11:38.000Z,31.65
2022-10-30T12:12:38.000Z,31.78
2022-10-30T12:13:38.000Z,31.84
2022-10-30T12:14:38.000Z,31.81
2022-10-30T12:15:38.000Z,31.80
2022-10-30T12:16:38.000Z,31.70
2022-10-30T12:17:38.000Z,31.51
2022-10-30T12:18:38.000Z,31.52
2022-10-30T12:19:38.000Z,31.51
2022-10-30T12:20:38.000Z,31.52
2022-10-30T12:21:38.000Z,31.39
2022-10-30T12:22:38.000Z,31.10
2022-10-30T12:23:38.000Z,30.53
2022-10-30T12:24:38.000Z,30.23
2022-10-30T12:25:38.000Z,29.94
2022-10-30T12:26:38.000Z,29.63
2022-10-30T12:27:38.000Z,29.22
2022-10-30T12:28:38.000Z,28.81
2022-10-30T12:29:38.000Z,28.39
2022-10-30T12:30:38.000Z,28.02
2022-10-30T12:31:38.000Z,27.75
2022-10-30T12:32:38.000Z,27.51
2022-10-30T12:33:38.000Z,27.21
2022-10-30T12:34:38.000Z,27.00
2022-10-30T12:35:38.000Z,26.78
2022-10-30T12:36:38.000Z,26.65
2022-10-30T12:37:38.000Z,26.40
2022-10-30T12:38:38.000Z,26.22
2022-10-30T12:39:38.000Z,26.02
2022-10-30T12:40:38.000Z,25.85
2022-10-30T12:41:38.000Z,25.72
2022-10-30T12:42:38.000Z,25.62
2022-10-30T12:43:38.000Z,25.43
2022-10-30T12:44:38.000Z,25.29
2022-10-30T12:45:38.000Z,25.16
2022-10-30T12:46:38.000Z,25.08
2022-10-30T12:47:38.000Z,24.96
2022-10-30T12:48:38.000Z,24.89
2022-10-30T12:49:38.000Z,24.88
2022-10-30T12:50:38.000Z,24.77
2022-10-30T12:51:38.000Z,24.70
2022-10-30T12:52:38.000Z,24.65